sensor_id;sensor_type;location;lat;lon;timestamp;P1;durP1;ratioP1;P2;durP2;ratioP2
31424;SDS011;18054;51.572;7.372;2022-12-18T00:01:13;90.95;;;37.60;;
31424;SDS011;18054;51.572;7.372;2022-12-18T00:03:41;84.00;;;37.10;;
31424;SDS011;18054;51.572;7.372;2022-12-18T00:06:10;90.32;;;35.97;;
31424;SDS011;18054;51.572;7.372;2022-12-18T00:11:05;94.10;;;36.83;;
31424;SDS011;18054;51.572;7.372;2022-12-18T00:13:33;87.80;;;37.10;;
31424;SDS011;18054;51.572;7.372;2022-12-18T00:16:03;84.43;;;35.58;;
31424;SDS011;18054;51.572;7.372;2022-12-18T00:18:31;86.35;;;38.05;;
31424;SDS011;18054;51.572;7.372;2022-12-18T00:20:58;94.95;;;38.50;;
31424;SDS011;18054;51.572;7.372;2022-12-18T00:23:26;82.20;;;37.72;;
31424;SDS011;18054;51.572;7.372;2022-12-18T00:25:54;89.28;;;36.92;;
31424;SDS011;18054;51.572;7.372;2022-12-18T00:30:48;77.75;;;34.85;;
31424;SDS011;18054;51.572;7.372;2022-12-18T00:33:18;87.47;;;37.13;;
31424;SDS011;18054;51.572;7.372;2022-12-18T00:35:46;84.60;;;37.78;;
31424;SDS011;18054;51.572;7.372;2022-12-18T00:40:42;76.95;;;33.92;;
31424;SDS011;18054;51.572;7.372;2022-12-18T00:43:11;81.60;;;34.95;;
31424;SDS011;18054;51.572;7.372;2022-12-18T00:45:37;81.00;;;35.40;;
31424;SDS011;18054;51.572;7.372;2022-12-18T00:48:05;78.25;;;36.22;;
31424;SDS011;18054;51.572;7.372;2022-12-18T00:50:35;76.65;;;35.90;;
31424;SDS011;18054;51.572;7.372;2022-12-18T00:53:02;86.30;;;37.90;;
31424;SDS011;18054;51.572;7.372;2022-12-18T00:57:57;82.65;;;34.88;;
31424;SDS011;18054;51.572;7.372;2022-12-18T01:02:52;83.63;;;35.42;;
31424;SDS011;18054;51.572;7.372;2022-12-18T01:05:19;91.28;;;36.72;;
31424;SDS011;18054;51.572;7.372;2022-12-18T01:10:15;75.72;;;34.85;;
31424;SDS011;18054;51.572;7.372;2022-12-18T01:12:43;75.70;;;35.40;;
31424;SDS011;18054;51.572;7.372;2022-12-18T01:15:12;80.72;;;34.97;;
31424;SDS011;18054;51.572;7.372;2022-12-18T01:17:39;84.35;;;36.33;;
31424;SDS011;18054;51.572;7.372;2022-12-18T01:22:34;86.00;;;35.53;;
31424;SDS011;18054;51.572;7.372;2022-12-18T01:25:02;86.05;;;37.33;;
31424;SDS011;18054;51.572;7.372;2022-12-18T01:27:32;85.88;;;36.45;;
31424;SDS011;18054;51.572;7.372;2022-12-18T01:30:02;83.38;;;36.92;;
31424;SDS011;18054;51.572;7.372;2022-12-18T01:32:30;89.75;;;37.05;;
31424;SDS011;18054;51.572;7.372;2022-12-18T01:35:01;87.95;;;38.47;;
31424;SDS011;18054;51.572;7.372;2022-12-18T01:39:55;85.47;;;34.72;;
31424;SDS011;18054;51.572;7.372;2022-12-18T01:47:36;80.50;;;34.38;;
31424;SDS011;18054;51.572;7.372;2022-12-18T01:50:06;85.07;;;36.55;;
31424;SDS011;18054;51.572;7.372;2022-12-18T01:52:35;90.53;;;36.72;;
31424;SDS011;18054;51.572;7.372;2022-12-18T01:55:05;91.22;;;39.10;;
31424;SDS011;18054;51.572;7.372;2022-12-18T01:57:33;84.05;;;37.08;;
31424;SDS011;18054;51.572;7.372;2022-12-18T02:00:03;89.50;;;35.92;;
31424;SDS011;18054;51.572;7.372;2022-12-18T02:02:39;99.93;;;38.15;;
31424;SDS011;18054;51.572;7.372;2022-12-18T02:05:17;84.68;;;36.63;;
31424;SDS011;18054;51.572;7.372;2022-12-18T02:07:49;90.88;;;38.88;;
31424;SDS011;18054;51.572;7.372;2022-12-18T02:10:20;86.05;;;33.90;;
31424;SDS011;18054;51.572;7.372;2022-12-18T02:12:52;97.78;;;38.28;;
31424;SDS011;18054;51.572;7.372;2022-12-18T02:15:23;86.65;;;36.45;;
31424;SDS011;18054;51.572;7.372;2022-12-18T02:17:55;90.80;;;36.05;;
31424;SDS011;18054;51.572;7.372;2022-12-18T02:20:27;80.13;;;34.50;;
31424;SDS011;18054;51.572;7.372;2022-12-18T02:23:01;80.93;;;33.55;;
31424;SDS011;18054;51.572;7.372;2022-12-18T02:25:37;80.07;;;33.70;;
31424;SDS011;18054;51.572;7.372;2022-12-18T02:28:08;93.45;;;37.25;;
31424;SDS011;18054;51.572;7.372;2022-12-18T02:30:36;88.72;;;35.08;;
31424;SDS011;18054;51.572;7.372;2022-12-18T02:33:06;87.88;;;36.10;;
31424;SDS011;18054;51.572;7.372;2022-12-18T02:35:37;89.43;;;37.45;;
31424;SDS011;18054;51.572;7.372;2022-12-18T02:38:06;81.78;;;36.20;;
31424;SDS011;18054;51.572;7.372;2022-12-18T02:40:36;93.88;;;39.15;;
31424;SDS011;18054;51.572;7.372;2022-12-18T02:43:10;77.85;;;33.85;;
31424;SDS011;18054;51.572;7.372;2022-12-18T02:45:45;84.57;;;38.88;;
31424;SDS011;18054;51.572;7.372;2022-12-18T02:48:14;83.45;;;34.85;;
31424;SDS011;18054;51.572;7.372;2022-12-18T02:50:44;77.47;;;34.05;;
31424;SDS011;18054;51.572;7.372;2022-12-18T02:53:14;95.65;;;37.13;;
31424;SDS011;18054;51.572;7.372;2022-12-18T02:55:48;76.20;;;35.28;;
31424;SDS011;18054;51.572;7.372;2022-12-18T02:58:25;88.30;;;37.00;;
31424;SDS011;18054;51.572;7.372;2022-12-18T03:01:09;86.57;;;35.70;;
31424;SDS011;18054;51.572;7.372;2022-12-18T03:03:43;86.00;;;34.25;;
31424;SDS011;18054;51.572;7.372;2022-12-18T03:06:14;80.57;;;34.88;;
31424;SDS011;18054;51.572;7.372;2022-12-18T03:08:45;78.68;;;33.55;;
31424;SDS011;18054;51.572;7.372;2022-12-18T03:11:16;84.50;;;35.13;;
31424;SDS011;18054;51.572;7.372;2022-12-18T03:14:08;82.28;;;35.65;;
31424;SDS011;18054;51.572;7.372;2022-12-18T03:16:36;82.85;;;34.53;;
31424;SDS011;18054;51.572;7.372;2022-12-18T03:19:06;93.45;;;36.97;;
31424;SDS011;18054;51.572;7.372;2022-12-18T03:21:35;82.38;;;35.20;;
31424;SDS011;18054;51.572;7.372;2022-12-18T03:24:06;85.22;;;34.90;;
31424;SDS011;18054;51.572;7.372;2022-12-18T03:26:35;89.70;;;33.90;;
31424;SDS011;18054;51.572;7.372;2022-12-18T03:29:08;80.43;;;34.47;;
31424;SDS011;18054;51.572;7.372;2022-12-18T03:31:40;79.65;;;33.00;;
31424;SDS011;18054;51.572;7.372;2022-12-18T03:34:09;88.93;;;35.13;;
31424;SDS011;18054;51.572;7.372;2022-12-18T03:36:46;77.25;;;33.47;;
31424;SDS011;18054;51.572;7.372;2022-12-18T03:39:14;74.85;;;33.88;;
31424;SDS011;18054;51.572;7.372;2022-12-18T03:41:51;77.40;;;34.35;;
31424;SDS011;18054;51.572;7.372;2022-12-18T03:44:47;83.07;;;34.50;;
31424;SDS011;18054;51.572;7.372;2022-12-18T03:47:20;78.20;;;33.58;;
31424;SDS011;18054;51.572;7.372;2022-12-18T03:49:50;70.93;;;31.77;;
31424;SDS011;18054;51.572;7.372;2022-12-18T03:52:40;85.90;;;33.50;;
31424;SDS011;18054;51.572;7.372;2022-12-18T03:55:21;68.22;;;32.20;;
31424;SDS011;18054;51.572;7.372;2022-12-18T03:57:55;75.97;;;33.63;;
31424;SDS011;18054;51.572;7.372;2022-12-18T04:00:31;79.07;;;32.83;;
31424;SDS011;18054;51.572;7.372;2022-12-18T04:03:11;80.90;;;34.83;;
31424;SDS011;18054;51.572;7.372;2022-12-18T04:05:43;72.03;;;31.67;;
31424;SDS011;18054;51.572;7.372;2022-12-18T04:08:13;89.32;;;35.28;;
31424;SDS011;18054;51.572;7.372;2022-12-18T04:10:48;64.55;;;30.90;;
31424;SDS011;18054;51.572;7.372;2022-12-18T04:13:21;87.55;;;33.95;;
31424;SDS011;18054;51.572;7.372;2022-12-18T04:15:50;102.72;;;35.00;;
31424;SDS011;18054;51.572;7.372;2022-12-18T04:18:19;78.57;;;34.63;;
31424;SDS011;18054;51.572;7.372;2022-12-18T04:20:47;84.25;;;31.92;;
31424;SDS011;18054;51.572;7.372;2022-12-18T04:23:16;100.97;;;34.03;;
31424;SDS011;18054;51.572;7.372;2022-12-18T04:25:45;74.47;;;33.10;;
31424;SDS011;18054;51.572;7.372;2022-12-18T04:28:17;75.45;;;32.65;;
31424;SDS011;18054;51.572;7.372;2022-12-18T04:30:45;82.07;;;33.47;;
31424;SDS011;18054;51.572;7.372;2022-12-18T04:33:14;75.63;;;33.78;;
31424;SDS011;18054;51.572;7.372;2022-12-18T04:35:41;81.65;;;35.35;;
31424;SDS011;18054;51.572;7.372;2022-12-18T04:40:40;80.63;;;32.85;;
31424;SDS011;18054;51.572;7.372;2022-12-18T04:43:19;79.40;;;33.40;;
31424;SDS011;18054;51.572;7.372;2022-12-18T04:45:49;87.32;;;32.33;;
31424;SDS011;18054;51.572;7.372;2022-12-18T04:48:18;88.22;;;34.97;;
31424;SDS011;18054;51.572;7.372;2022-12-18T04:50:48;84.97;;;33.33;;
31424;SDS011;18054;51.572;7.372;2022-12-18T04:53:16;76.10;;;31.85;;
31424;SDS011;18054;51.572;7.372;2022-12-18T04:55:46;77.30;;;34.33;;
31424;SDS011;18054;51.572;7.372;2022-12-18T05:00:41;74.85;;;31.80;;
31424;SDS011;18054;51.572;7.372;2022-12-18T05:05:39;69.25;;;31.17;;
31424;SDS011;18054;51.572;7.372;2022-12-18T05:08:06;70.38;;;31.15;;
31424;SDS011;18054;51.572;7.372;2022-12-18T05:13:04;72.80;;;30.83;;
31424;SDS011;18054;51.572;7.372;2022-12-18T05:17:59;71.53;;;29.60;;
31424;SDS011;18054;51.572;7.372;2022-12-18T05:20:27;68.35;;;32.05;;
31424;SDS011;18054;51.572;7.372;2022-12-18T05:22:56;76.40;;;33.03;;
31424;SDS011;18054;51.572;7.372;2022-12-18T05:25:24;82.05;;;33.05;;
31424;SDS011;18054;51.572;7.372;2022-12-18T05:27:55;74.50;;;32.72;;
31424;SDS011;18054;51.572;7.372;2022-12-18T05:30:23;77.93;;;30.85;;
31424;SDS011;18054;51.572;7.372;2022-12-18T05:32:55;67.05;;;30.45;;
31424;SDS011;18054;51.572;7.372;2022-12-18T05:35:24;71.43;;;30.75;;
31424;SDS011;18054;51.572;7.372;2022-12-18T05:37:52;80.70;;;31.95;;
31424;SDS011;18054;51.572;7.372;2022-12-18T05:42:51;75.55;;;31.88;;
31424;SDS011;18054;51.572;7.372;2022-12-18T05:45:18;63.05;;;29.50;;
31424;SDS011;18054;51.572;7.372;2022-12-18T05:47:46;72.78;;;30.77;;
31424;SDS011;18054;51.572;7.372;2022-12-18T05:50:19;68.47;;;30.83;;
31424;SDS011;18054;51.572;7.372;2022-12-18T05:52:47;73.50;;;31.15;;
31424;SDS011;18054;51.572;7.372;2022-12-18T05:55:14;75.10;;;32.08;;
31424;SDS011;18054;51.572;7.372;2022-12-18T05:57:42;73.50;;;32.28;;
31424;SDS011;18054;51.572;7.372;2022-12-18T06:00:19;69.47;;;30.10;;
31424;SDS011;18054;51.572;7.372;2022-12-18T06:02:47;67.75;;;29.83;;
31424;SDS011;18054;51.572;7.372;2022-12-18T06:05:15;66.53;;;29.35;;
31424;SDS011;18054;51.572;7.372;2022-12-18T06:07:45;64.88;;;29.00;;
31424;SDS011;18054;51.572;7.372;2022-12-18T06:10:15;70.70;;;30.17;;
31424;SDS011;18054;51.572;7.372;2022-12-18T06:12:45;72.00;;;30.67;;
31424;SDS011;18054;51.572;7.372;2022-12-18T06:15:15;68.30;;;30.20;;
31424;SDS011;18054;51.572;7.372;2022-12-18T06:17:43;72.15;;;30.98;;
31424;SDS011;18054;51.572;7.372;2022-12-18T06:20:11;71.93;;;30.25;;
31424;SDS011;18054;51.572;7.372;2022-12-18T06:22:39;70.18;;;30.88;;
31424;SDS011;18054;51.572;7.372;2022-12-18T06:25:09;70.78;;;32.28;;
31424;SDS011;18054;51.572;7.372;2022-12-18T06:27:36;71.03;;;31.80;;
31424;SDS011;18054;51.572;7.372;2022-12-18T06:30:04;60.75;;;27.90;;
31424;SDS011;18054;51.572;7.372;2022-12-18T06:32:33;75.15;;;30.77;;
31424;SDS011;18054;51.572;7.372;2022-12-18T06:35:01;61.00;;;29.17;;
31424;SDS011;18054;51.572;7.372;2022-12-18T06:37:28;65.28;;;29.65;;
31424;SDS011;18054;51.572;7.372;2022-12-18T06:39:57;70.93;;;27.35;;
31424;SDS011;18054;51.572;7.372;2022-12-18T06:42:25;67.75;;;30.25;;
31424;SDS011;18054;51.572;7.372;2022-12-18T06:47:21;55.90;;;26.40;;
31424;SDS011;18054;51.572;7.372;2022-12-18T06:49:52;66.05;;;28.38;;
31424;SDS011;18054;51.572;7.372;2022-12-18T06:52:20;63.50;;;30.05;;
31424;SDS011;18054;51.572;7.372;2022-12-18T06:54:49;65.80;;;28.27;;
31424;SDS011;18054;51.572;7.372;2022-12-18T06:57:16;66.13;;;29.40;;
31424;SDS011;18054;51.572;7.372;2022-12-18T07:02:13;59.88;;;26.30;;
31424;SDS011;18054;51.572;7.372;2022-12-18T07:04:41;59.55;;;26.45;;
31424;SDS011;18054;51.572;7.372;2022-12-18T07:09:37;68.10;;;27.92;;
31424;SDS011;18054;51.572;7.372;2022-12-18T07:12:04;58.15;;;26.23;;
31424;SDS011;18054;51.572;7.372;2022-12-18T07:14:33;68.65;;;28.50;;
31424;SDS011;18054;51.572;7.372;2022-12-18T07:17:00;70.78;;;29.00;;
31424;SDS011;18054;51.572;7.372;2022-12-18T07:19:32;63.88;;;29.15;;
31424;SDS011;18054;51.572;7.372;2022-12-18T07:22:00;68.22;;;26.50;;
31424;SDS011;18054;51.572;7.372;2022-12-18T07:24:29;61.47;;;26.80;;
31424;SDS011;18054;51.572;7.372;2022-12-18T07:26:58;62.55;;;28.13;;
31424;SDS011;18054;51.572;7.372;2022-12-18T07:29:26;70.10;;;28.27;;
31424;SDS011;18054;51.572;7.372;2022-12-18T07:34:21;61.28;;;27.50;;
31424;SDS011;18054;51.572;7.372;2022-12-18T07:36:48;65.03;;;24.85;;
31424;SDS011;18054;51.572;7.372;2022-12-18T07:39:18;60.13;;;25.10;;
31424;SDS011;18054;51.572;7.372;2022-12-18T07:44:34;56.00;;;23.13;;
31424;SDS011;18054;51.572;7.372;2022-12-18T07:47:03;47.97;;;23.25;;
31424;SDS011;18054;51.572;7.372;2022-12-18T07:49:37;68.47;;;24.40;;
31424;SDS011;18054;51.572;7.372;2022-12-18T07:52:06;52.17;;;23.98;;
31424;SDS011;18054;51.572;7.372;2022-12-18T07:54:35;53.13;;;23.02;;
31424;SDS011;18054;51.572;7.372;2022-12-18T07:57:03;44.97;;;21.85;;
31424;SDS011;18054;51.572;7.372;2022-12-18T07:59:48;55.88;;;22.75;;
31424;SDS011;18054;51.572;7.372;2022-12-18T08:02:15;50.05;;;21.83;;
31424;SDS011;18054;51.572;7.372;2022-12-18T08:04:44;52.47;;;22.30;;
31424;SDS011;18054;51.572;7.372;2022-12-18T08:07:17;41.92;;;21.08;;
31424;SDS011;18054;51.572;7.372;2022-12-18T08:12:15;42.20;;;20.40;;
31424;SDS011;18054;51.572;7.372;2022-12-18T08:14:43;49.58;;;21.02;;
31424;SDS011;18054;51.572;7.372;2022-12-18T08:19:39;62.55;;;22.50;;
31424;SDS011;18054;51.572;7.372;2022-12-18T08:22:08;50.63;;;20.45;;
31424;SDS011;18054;51.572;7.372;2022-12-18T08:24:35;36.17;;;19.60;;
31424;SDS011;18054;51.572;7.372;2022-12-18T08:29:52;44.65;;;20.30;;
31424;SDS011;18054;51.572;7.372;2022-12-18T08:32:20;44.33;;;19.77;;
31424;SDS011;18054;51.572;7.372;2022-12-18T08:34:51;47.33;;;21.17;;
31424;SDS011;18054;51.572;7.372;2022-12-18T08:37:19;47.35;;;19.67;;
31424;SDS011;18054;51.572;7.372;2022-12-18T08:39:49;50.22;;;20.67;;
31424;SDS011;18054;51.572;7.372;2022-12-18T08:42:18;49.95;;;20.63;;
31424;SDS011;18054;51.572;7.372;2022-12-18T08:45:05;48.95;;;21.00;;
31424;SDS011;18054;51.572;7.372;2022-12-18T08:47:33;46.67;;;21.23;;
31424;SDS011;18054;51.572;7.372;2022-12-18T08:50:04;52.20;;;21.45;;
31424;SDS011;18054;51.572;7.372;2022-12-18T08:52:32;39.10;;;17.35;;
31424;SDS011;18054;51.572;7.372;2022-12-18T08:55:01;47.40;;;22.42;;
31424;SDS011;18054;51.572;7.372;2022-12-18T08:57:28;45.78;;;20.95;;
31424;SDS011;18054;51.572;7.372;2022-12-18T08:59:58;38.88;;;20.20;;
31424;SDS011;18054;51.572;7.372;2022-12-18T09:02:29;36.85;;;16.67;;
31424;SDS011;18054;51.572;7.372;2022-12-18T09:04:57;38.47;;;17.02;;
31424;SDS011;18054;51.572;7.372;2022-12-18T09:07:26;35.97;;;16.15;;
31424;SDS011;18054;51.572;7.372;2022-12-18T09:09:59;36.85;;;17.95;;
31424;SDS011;18054;51.572;7.372;2022-12-18T09:12:27;33.72;;;16.23;;
31424;SDS011;18054;51.572;7.372;2022-12-18T09:14:54;34.53;;;16.73;;
31424;SDS011;18054;51.572;7.372;2022-12-18T09:17:25;32.88;;;15.73;;
31424;SDS011;18054;51.572;7.372;2022-12-18T09:19:53;34.40;;;16.15;;
31424;SDS011;18054;51.572;7.372;2022-12-18T09:22:20;48.17;;;15.43;;
31424;SDS011;18054;51.572;7.372;2022-12-18T09:29:44;30.40;;;14.25;;
31424;SDS011;18054;51.572;7.372;2022-12-18T09:32:14;32.63;;;15.23;;
31424;SDS011;18054;51.572;7.372;2022-12-18T09:34:47;33.67;;;15.65;;
31424;SDS011;18054;51.572;7.372;2022-12-18T09:37:17;33.95;;;13.77;;
31424;SDS011;18054;51.572;7.372;2022-12-18T09:39:45;33.45;;;14.18;;
31424;SDS011;18054;51.572;7.372;2022-12-18T09:42:14;30.80;;;14.15;;
31424;SDS011;18054;51.572;7.372;2022-12-18T09:44:48;35.00;;;16.23;;
31424;SDS011;18054;51.572;7.372;2022-12-18T09:47:17;31.70;;;15.43;;
31424;SDS011;18054;51.572;7.372;2022-12-18T09:49:47;35.33;;;15.35;;
31424;SDS011;18054;51.572;7.372;2022-12-18T09:52:17;35.40;;;16.05;;
31424;SDS011;18054;51.572;7.372;2022-12-18T09:54:50;31.95;;;15.23;;
31424;SDS011;18054;51.572;7.372;2022-12-18T09:57:19;31.75;;;14.88;;
31424;SDS011;18054;51.572;7.372;2022-12-18T09:59:50;30.15;;;14.65;;
31424;SDS011;18054;51.572;7.372;2022-12-18T10:02:21;30.15;;;14.98;;
31424;SDS011;18054;51.572;7.372;2022-12-18T10:04:55;33.85;;;15.20;;
31424;SDS011;18054;51.572;7.372;2022-12-18T10:07:28;33.35;;;15.23;;
31424;SDS011;18054;51.572;7.372;2022-12-18T10:10:01;37.13;;;16.95;;
31424;SDS011;18054;51.572;7.372;2022-12-18T10:12:30;32.75;;;14.75;;
31424;SDS011;18054;51.572;7.372;2022-12-18T10:15:04;26.38;;;13.95;;
31424;SDS011;18054;51.572;7.372;2022-12-18T10:17:35;25.80;;;13.52;;
31424;SDS011;18054;51.572;7.372;2022-12-18T10:20:16;27.75;;;13.75;;
31424;SDS011;18054;51.572;7.372;2022-12-18T10:22:47;28.25;;;14.40;;
31424;SDS011;18054;51.572;7.372;2022-12-18T10:25:25;34.45;;;16.17;;
31424;SDS011;18054;51.572;7.372;2022-12-18T10:27:54;32.50;;;15.82;;
31424;SDS011;18054;51.572;7.372;2022-12-18T10:30:26;30.92;;;16.65;;
31424;SDS011;18054;51.572;7.372;2022-12-18T10:33:02;43.88;;;20.23;;
31424;SDS011;18054;51.572;7.372;2022-12-18T10:35:30;30.75;;;14.50;;
31424;SDS011;18054;51.572;7.372;2022-12-18T10:38:00;28.65;;;14.70;;
31424;SDS011;18054;51.572;7.372;2022-12-18T10:40:30;29.83;;;14.18;;
31424;SDS011;18054;51.572;7.372;2022-12-18T10:43:10;26.05;;;13.13;;
31424;SDS011;18054;51.572;7.372;2022-12-18T10:45:40;27.10;;;12.45;;
31424;SDS011;18054;51.572;7.372;2022-12-18T10:48:17;27.08;;;14.05;;
31424;SDS011;18054;51.572;7.372;2022-12-18T10:50:46;25.17;;;13.77;;
31424;SDS011;18054;51.572;7.372;2022-12-18T10:53:35;24.38;;;13.15;;
31424;SDS011;18054;51.572;7.372;2022-12-18T10:56:07;27.73;;;14.43;;
31424;SDS011;18054;51.572;7.372;2022-12-18T10:58:36;29.35;;;14.10;;
31424;SDS011;18054;51.572;7.372;2022-12-18T11:01:10;26.17;;;13.57;;
31424;SDS011;18054;51.572;7.372;2022-12-18T11:03:38;25.90;;;14.10;;
31424;SDS011;18054;51.572;7.372;2022-12-18T11:06:10;24.83;;;13.52;;
31424;SDS011;18054;51.572;7.372;2022-12-18T11:08:37;26.00;;;13.57;;
31424;SDS011;18054;51.572;7.372;2022-12-18T11:11:14;25.30;;;13.38;;
31424;SDS011;18054;51.572;7.372;2022-12-18T11:13:47;25.00;;;13.23;;
31424;SDS011;18054;51.572;7.372;2022-12-18T11:16:19;29.85;;;14.10;;
31424;SDS011;18054;51.572;7.372;2022-12-18T11:18:47;23.67;;;13.13;;
31424;SDS011;18054;51.572;7.372;2022-12-18T11:21:16;23.35;;;13.02;;
31424;SDS011;18054;51.572;7.372;2022-12-18T11:23:46;22.90;;;12.60;;
31424;SDS011;18054;51.572;7.372;2022-12-18T11:26:14;21.63;;;12.48;;
31424;SDS011;18054;51.572;7.372;2022-12-18T11:28:45;28.23;;;13.82;;
31424;SDS011;18054;51.572;7.372;2022-12-18T11:31:18;23.83;;;12.95;;
31424;SDS011;18054;51.572;7.372;2022-12-18T11:33:48;26.58;;;13.35;;
31424;SDS011;18054;51.572;7.372;2022-12-18T11:36:38;24.15;;;13.32;;
31424;SDS011;18054;51.572;7.372;2022-12-18T11:39:09;28.33;;;13.25;;
31424;SDS011;18054;51.572;7.372;2022-12-18T11:41:39;24.80;;;12.70;;
31424;SDS011;18054;51.572;7.372;2022-12-18T11:44:26;24.50;;;13.10;;
31424;SDS011;18054;51.572;7.372;2022-12-18T11:46:55;21.92;;;11.63;;
31424;SDS011;18054;51.572;7.372;2022-12-18T11:49:26;22.50;;;12.02;;
31424;SDS011;18054;51.572;7.372;2022-12-18T11:51:58;29.50;;;13.45;;
31424;SDS011;18054;51.572;7.372;2022-12-18T11:54:28;26.60;;;12.18;;
31424;SDS011;18054;51.572;7.372;2022-12-18T11:56:58;23.02;;;11.93;;
31424;SDS011;18054;51.572;7.372;2022-12-18T11:59:32;22.98;;;11.57;;
31424;SDS011;18054;51.572;7.372;2022-12-18T12:02:03;25.55;;;12.60;;
31424;SDS011;18054;51.572;7.372;2022-12-18T12:04:43;23.50;;;11.18;;
31424;SDS011;18054;51.572;7.372;2022-12-18T12:07:18;21.73;;;11.50;;
31424;SDS011;18054;51.572;7.372;2022-12-18T12:09:49;21.63;;;11.15;;
31424;SDS011;18054;51.572;7.372;2022-12-18T12:12:25;23.77;;;10.93;;
31424;SDS011;18054;51.572;7.372;2022-12-18T12:15:17;21.52;;;11.52;;
31424;SDS011;18054;51.572;7.372;2022-12-18T12:17:48;29.90;;;15.07;;
31424;SDS011;18054;51.572;7.372;2022-12-18T12:20:26;24.83;;;13.25;;
31424;SDS011;18054;51.572;7.372;2022-12-18T12:23:01;25.75;;;11.02;;
31424;SDS011;18054;51.572;7.372;2022-12-18T12:25:37;19.73;;;10.10;;
31424;SDS011;18054;51.572;7.372;2022-12-18T12:28:13;19.40;;;10.50;;
31424;SDS011;18054;51.572;7.372;2022-12-18T12:30:44;19.40;;;10.45;;
31424;SDS011;18054;51.572;7.372;2022-12-18T12:33:22;26.70;;;11.63;;
31424;SDS011;18054;51.572;7.372;2022-12-18T12:35:59;19.60;;;11.82;;
31424;SDS011;18054;51.572;7.372;2022-12-18T12:38:30;24.70;;;12.10;;
31424;SDS011;18054;51.572;7.372;2022-12-18T12:40:59;19.00;;;10.55;;
31424;SDS011;18054;51.572;7.372;2022-12-18T12:43:35;20.55;;;11.32;;
31424;SDS011;18054;51.572;7.372;2022-12-18T12:46:15;23.90;;;11.13;;
31424;SDS011;18054;51.572;7.372;2022-12-18T12:48:46;28.02;;;13.13;;
31424;SDS011;18054;51.572;7.372;2022-12-18T12:51:19;24.33;;;12.30;;
31424;SDS011;18054;51.572;7.372;2022-12-18T12:53:48;20.67;;;11.35;;
31424;SDS011;18054;51.572;7.372;2022-12-18T12:56:18;22.38;;;11.73;;
31424;SDS011;18054;51.572;7.372;2022-12-18T12:58:54;20.85;;;11.13;;
31424;SDS011;18054;51.572;7.372;2022-12-18T13:01:25;23.85;;;11.82;;
31424;SDS011;18054;51.572;7.372;2022-12-18T13:03:57;22.85;;;11.40;;
31424;SDS011;18054;51.572;7.372;2022-12-18T13:06:33;21.25;;;10.85;;
31424;SDS011;18054;51.572;7.372;2022-12-18T13:09:10;26.35;;;11.68;;
31424;SDS011;18054;51.572;7.372;2022-12-18T13:11:38;22.05;;;11.43;;
31424;SDS011;18054;51.572;7.372;2022-12-18T13:14:28;24.85;;;12.75;;
31424;SDS011;18054;51.572;7.372;2022-12-18T13:19:41;22.13;;;11.82;;
31424;SDS011;18054;51.572;7.372;2022-12-18T13:22:23;26.50;;;11.82;;
31424;SDS011;18054;51.572;7.372;2022-12-18T13:24:53;21.80;;;11.43;;
31424;SDS011;18054;51.572;7.372;2022-12-18T13:32:50;24.40;;;12.65;;
31424;SDS011;18054;51.572;7.372;2022-12-18T13:35:38;23.90;;;12.85;;
31424;SDS011;18054;51.572;7.372;2022-12-18T13:38:20;22.15;;;11.60;;
31424;SDS011;18054;51.572;7.372;2022-12-18T13:40:55;21.05;;;11.75;;
31424;SDS011;18054;51.572;7.372;2022-12-18T13:43:25;23.65;;;12.25;;
31424;SDS011;18054;51.572;7.372;2022-12-18T13:46:03;22.95;;;11.73;;
31424;SDS011;18054;51.572;7.372;2022-12-18T13:48:37;26.25;;;13.35;;
31424;SDS011;18054;51.572;7.372;2022-12-18T13:51:07;25.10;;;11.82;;
31424;SDS011;18054;51.572;7.372;2022-12-18T13:53:42;25.83;;;12.50;;
31424;SDS011;18054;51.572;7.372;2022-12-18T13:56:15;25.60;;;11.23;;
31424;SDS011;18054;51.572;7.372;2022-12-18T13:58:45;24.60;;;12.48;;
31424;SDS011;18054;51.572;7.372;2022-12-18T14:01:23;22.48;;;12.20;;
31424;SDS011;18054;51.572;7.372;2022-12-18T14:04:08;21.52;;;12.50;;
31424;SDS011;18054;51.572;7.372;2022-12-18T14:06:35;22.23;;;12.00;;
31424;SDS011;18054;51.572;7.372;2022-12-18T14:09:04;24.77;;;12.20;;
31424;SDS011;18054;51.572;7.372;2022-12-18T14:11:36;23.75;;;12.68;;
31424;SDS011;18054;51.572;7.372;2022-12-18T14:14:05;23.15;;;11.65;;
31424;SDS011;18054;51.572;7.372;2022-12-18T14:16:34;21.60;;;12.55;;
31424;SDS011;18054;51.572;7.372;2022-12-18T14:21:40;25.85;;;12.27;;
31424;SDS011;18054;51.572;7.372;2022-12-18T14:24:13;21.25;;;12.23;;
31424;SDS011;18054;51.572;7.372;2022-12-18T14:26:56;23.13;;;12.80;;
31424;SDS011;18054;51.572;7.372;2022-12-18T14:29:42;23.83;;;13.77;;
31424;SDS011;18054;51.572;7.372;2022-12-18T14:34:42;31.75;;;13.52;;
31424;SDS011;18054;51.572;7.372;2022-12-18T14:37:13;24.58;;;13.68;;
31424;SDS011;18054;51.572;7.372;2022-12-18T14:39:54;27.70;;;13.20;;
31424;SDS011;18054;51.572;7.372;2022-12-18T14:42:24;23.02;;;12.35;;
31424;SDS011;18054;51.572;7.372;2022-12-18T14:47:45;25.23;;;13.82;;
31424;SDS011;18054;51.572;7.372;2022-12-18T14:50:12;24.92;;;12.80;;
31424;SDS011;18054;51.572;7.372;2022-12-18T14:52:40;26.15;;;13.35;;
31424;SDS011;18054;51.572;7.372;2022-12-18T14:55:15;26.52;;;13.23;;
31424;SDS011;18054;51.572;7.372;2022-12-18T14:57:43;26.58;;;13.75;;
31424;SDS011;18054;51.572;7.372;2022-12-18T15:02:38;27.02;;;12.43;;
31424;SDS011;18054;51.572;7.372;2022-12-18T15:07:42;30.08;;;14.00;;
31424;SDS011;18054;51.572;7.372;2022-12-18T15:10:13;25.20;;;13.40;;
31424;SDS011;18054;51.572;7.372;2022-12-18T15:12:43;29.95;;;13.30;;
31424;SDS011;18054;51.572;7.372;2022-12-18T15:17:57;27.95;;;14.45;;
31424;SDS011;18054;51.572;7.372;2022-12-18T15:20:25;24.63;;;14.05;;
31424;SDS011;18054;51.572;7.372;2022-12-18T15:22:52;24.98;;;13.35;;
31424;SDS011;18054;51.572;7.372;2022-12-18T15:25:24;27.70;;;14.15;;
31424;SDS011;18054;51.572;7.372;2022-12-18T15:27:56;27.05;;;13.35;;
31424;SDS011;18054;51.572;7.372;2022-12-18T15:30:23;29.55;;;13.02;;
31424;SDS011;18054;51.572;7.372;2022-12-18T15:35:38;26.10;;;12.52;;
31424;SDS011;18054;51.572;7.372;2022-12-18T15:38:12;23.73;;;13.13;;
31424;SDS011;18054;51.572;7.372;2022-12-18T15:40:39;38.47;;;15.77;;
31424;SDS011;18054;51.572;7.372;2022-12-18T15:43:10;27.23;;;14.88;;
31424;SDS011;18054;51.572;7.372;2022-12-18T15:45:55;25.70;;;13.15;;
31424;SDS011;18054;51.572;7.372;2022-12-18T15:48:23;26.38;;;14.05;;
31424;SDS011;18054;51.572;7.372;2022-12-18T15:50:50;30.27;;;14.95;;
31424;SDS011;18054;51.572;7.372;2022-12-18T15:53:23;34.45;;;14.68;;
31424;SDS011;18054;51.572;7.372;2022-12-18T15:55:51;28.08;;;14.15;;
31424;SDS011;18054;51.572;7.372;2022-12-18T15:58:37;30.40;;;13.38;;
31424;SDS011;18054;51.572;7.372;2022-12-18T16:01:05;31.73;;;13.88;;
31424;SDS011;18054;51.572;7.372;2022-12-18T16:03:36;23.83;;;13.98;;
31424;SDS011;18054;51.572;7.372;2022-12-18T16:06:04;28.55;;;14.88;;
31424;SDS011;18054;51.572;7.372;2022-12-18T16:10:59;28.60;;;14.55;;
31424;SDS011;18054;51.572;7.372;2022-12-18T16:13:27;25.65;;;14.10;;
31424;SDS011;18054;51.572;7.372;2022-12-18T16:15:56;27.75;;;14.32;;
31424;SDS011;18054;51.572;7.372;2022-12-18T16:18:29;34.08;;;14.57;;